createdAt,value
2018-02-26T00:00:56.490Z,1023.93
2018-02-26T00:01:56.496Z,1023.92
2018-02-26T00:02:56.482Z,1023.94
2018-02-26T00:03:56.482Z,1023.91
2018-02-26T00:04:56.489Z,1023.91
2018-02-26T00:05:56.496Z,1023.96
2018-02-26T00:06:56.568Z,1023.96
2018-02-26T00:07:56.484Z,1023.93
2018-02-26T00:08:56.489Z,1023.97
2018-02-26T00:09:56.599Z,1023.95
2018-02-26T00:10:56.488Z,1023.93
2018-02-26T00:11:56.596Z,1023.89
2018-02-26T00:12:56.495Z,1023.94
2018-02-26T00:13:56.506Z,1023.86
2018-02-26T00:14:56.494Z,1023.85
2018-02-26T00:15:56.492Z,1023.86
2018-02-26T00:16:56.529Z,1023.90
2018-02-26T00:17:56.483Z,1023.88
2018-02-26T00:18:56.490Z,1023.85
2018-02-26T00:19:56.486Z,1023.83
2018-02-26T00:20:56.491Z,1023.81
2018-02-26T00:21:56.486Z,1023.80
2018-02-26T00:22:56.582Z,1023.88
2018-02-26T00:23:56.499Z,1023.82
2018-02-26T00:24:56.486Z,1023.83
2018-02-26T00:25:56.586Z,1023.88
2018-02-26T00:26:56.498Z,1023.83
2018-02-26T00:27:56.498Z,1023.89
2018-02-26T00:28:56.504Z,1023.86
2018-02-26T00:29:56.502Z,1023.81
2018-02-26T00:30:56.497Z,1023.84
2018-02-26T00:31:56.496Z,1023.92
2018-02-26T00:32:56.500Z,1023.82
2018-02-26T00:33:56.504Z,1023.82
2018-02-26T00:34:56.547Z,1023.81
2018-02-26T00:35:56.488Z,1023.91
2018-02-26T00:36:56.489Z,1023.89
2018-02-26T00:37:56.507Z,1023.91
2018-02-26T00:38:56.492Z,1023.85
2018-02-26T00:39:56.494Z,1023.93
2018-02-26T00:40:56.498Z,1023.89
2018-02-26T00:41:56.493Z,1023.86
2018-02-26T00:42:56.504Z,1023.84
2018-02-26T00:43:56.492Z,1023.82
2018-02-26T00:44:56.505Z,1023.80
2018-02-26T00:45:56.499Z,1023.86
2018-02-26T00:46:56.502Z,1023.82
2018-02-26T00:47:56.490Z,1023.85
2018-02-26T00:48:56.498Z,1023.81
2018-02-26T00:49:56.493Z,1023.83
2018-02-26T00:50:56.495Z,1023.86
2018-02-26T00:51:56.490Z,1023.89
2018-02-26T00:52:56.494Z,1023.82
2018-02-26T00:53:56.491Z,1023.84
2018-02-26T00:54:56.496Z,1023.84
2018-02-26T00:55:56.494Z,1023.91
2018-02-26T00:56:56.503Z,1023.91
2018-02-26T00:57:56.501Z,1023.89
2018-02-26T00:58:56.495Z,1023.94
2018-02-26T00:59:56.496Z,1023.97
2018-02-26T01:00:56.502Z,1023.93
2018-02-26T01:01:56.536Z,1023.96
2018-02-26T01:02:56.502Z,1023.90
2018-02-26T01:03:56.548Z,1023.94
2018-02-26T01:04:56.496Z,1023.90
2018-02-26T01:05:56.562Z,1023.94
2018-02-26T01:06:56.493Z,1023.92
2018-02-26T01:07:56.564Z,1023.92
2018-02-26T01:08:56.496Z,1023.94
2018-02-26T01:09:56.492Z,1024.00
2018-02-26T01:10:56.492Z,1023.95
2018-02-26T01:11:56.500Z,1023.98
2018-02-26T01:12:56.494Z,1024.03
2018-02-26T01:13:56.498Z,1023.97
2018-02-26T01:14:56.501Z,1024.01
2018-02-26T01:15:56.499Z,1024.01
2018-02-26T01:16:56.528Z,1023.99
2018-02-26T01:17:56.491Z,1024.01
2018-02-26T01:18:56.500Z,1023.96
2018-02-26T01:19:56.500Z,1023.97
2018-02-26T01:20:56.503Z,1023.94
2018-02-26T01:21:56.497Z,1023.96
2018-02-26T01:22:56.496Z,1023.94
2018-02-26T01:23:56.494Z,1023.94
2018-02-26T01:24:56.528Z,1023.92
2018-02-26T01:25:56.488Z,1023.85
2018-02-26T01:26:56.498Z,1023.94
2018-02-26T01:27:56.502Z,1023.91
2018-02-26T01:28:56.498Z,1023.90
2018-02-26T01:29:56.529Z,1023.90
2018-02-26T01:30:56.590Z,1023.88
2018-02-26T01:31:56.498Z,1023.87
2018-02-26T01:32:56.494Z,1023.87
2018-02-26T01:33:56.494Z,1023.92
2018-02-26T01:34:56.499Z,1023.93
2018-02-26T01:35:56.551Z,1024.02
2018-02-26T01:36:56.493Z,1023.96
2018-02-26T01:37:56.493Z,1023.95
2018-02-26T01:38:56.510Z,1023.91
2018-02-26T01:39:56.510Z,1023.99
2018-02-26T01:40:56.512Z,1024.00
2018-02-26T01:41:56.492Z,1023.89
2018-02-26T01:42:56.495Z,1023.92
2018-02-26T01:43:56.501Z,1023.94
2018-02-26T01:44:56.492Z,1023.99
2018-02-26T01:45:56.492Z,1024.01
2018-02-26T01:46:56.494Z,1024.04
2018-02-26T01:47:56.530Z,1024.04
2018-02-26T01:48:56.491Z,1023.94
2018-02-26T01:49:56.495Z,1023.99
2018-02-26T01:50:56.492Z,1024.06
2018-02-26T01:51:56.493Z,1024.00
2018-02-26T01:52:56.488Z,1024.09
2018-02-26T01:53:56.489Z,1023.99
2018-02-26T01:54:56.543Z,1023.93
2018-02-26T01:55:56.493Z,1024.01
2018-02-26T01:56:56.490Z,1024.06
2018-02-26T01:57:56.493Z,1024.00
2018-02-26T01:58:56.490Z,1024.01
2018-02-26T01:59:56.508Z,1023.99
2018-02-26T02:00:56.490Z,1024.02
2018-02-26T02:01:56.487Z,1023.97
2018-02-26T02:02:56.503Z,1023.96
2018-02-26T02:03:56.500Z,1024.02
2018-02-26T02:04:56.504Z,1024.00
2018-02-26T02:05:56.492Z,1023.98
2018-02-26T02:06:56.492Z,1023.91
2018-02-26T02:07:56.488Z,1024.04
2018-02-26T02:08:56.499Z,1023.98
2018-02-26T02:09:56.491Z,1023.97
2018-02-26T02:10:56.487Z,1024.05
2018-02-26T02:11:56.492Z,1024.00
2018-02-26T02:12:56.489Z,1023.97
2018-02-26T02:13:56.487Z,1023.93
2018-02-26T02:14:56.488Z,1023.91
2018-02-26T02:15:56.498Z,1023.96
2018-02-26T02:16:56.496Z,1023.95
2018-02-26T02:17:56.481Z,1023.99
2018-02-26T02:18:56.493Z,1023.92
2018-02-26T02:19:56.489Z,1023.93
2018-02-26T02:20:56.487Z,1023.97
2018-02-26T02:21:56.485Z,1023.89
2018-02-26T02:22:56.492Z,1023.95
2018-02-26T02:23:56.483Z,1024.02
2018-02-26T02:24:56.485Z,1023.93
2018-02-26T02:25:56.489Z,1023.99
2018-02-26T02:26:56.496Z,1023.93
2018-02-26T02:27:56.483Z,1023.91
2018-02-26T02:28:56.504Z,1023.95
2018-02-26T02:29:56.484Z,1023.97
2018-02-26T02:30:56.515Z,1023.91
2018-02-26T02:31:56.490Z,1023.92
2018-02-26T02:32:56.480Z,1023.91
2018-02-26T02:33:56.487Z,1023.91
2018-02-26T02:34:56.494Z,1023.90
2018-02-26T02:35:56.482Z,1023.90
2018-02-26T02:36:56.487Z,1023.94
2018-02-26T02:37:56.483Z,1023.93
2018-02-26T02:38:56.478Z,1023.92
2018-02-26T02:39:56.480Z,1023.93
2018-02-26T02:40:56.474Z,1023.87
2018-02-26T02:41:56.482Z,1023.89
2018-02-26T02:42:56.485Z,1023.90
2018-02-26T02:43:56.479Z,1023.95
2018-02-26T02:44:56.483Z,1023.96
2018-02-26T02:45:56.473Z,1023.92
2018-02-26T02:46:56.482Z,1023.96
2018-02-26T02:47:56.480Z,1023.93
2018-02-26T02:48:56.478Z,1023.94
2018-02-26T02:49:56.499Z,1023.98
2018-02-26T02:50:56.474Z,1023.95
2018-02-26T02:51:56.480Z,1023.97
2018-02-26T02:52:56.479Z,1023.96
2018-02-26T02:53:56.477Z,1023.97
2018-02-26T02:54:56.482Z,1023.95
2018-02-26T02:55:56.472Z,1023.95
2018-02-26T02:56:56.478Z,1023.96
2018-02-26T02:57:56.476Z,1023.95
2018-02-26T02:58:56.475Z,1023.92
2018-02-26T02:59:56.475Z,1023.91
2018-02-26T03:00:56.482Z,1023.92
2018-02-26T03:01:56.487Z,1023.88
2018-02-26T03:02:56.486Z,1023.88
2018-02-26T03:03:56.473Z,1023.91
2018-02-26T03:04:56.470Z,1023.89
2018-02-26T03:05:56.476Z,1023.85
2018-02-26T03:06:56.478Z,1023.87
2018-02-26T03:07:56.466Z,1023.87
2018-02-26T03:08:56.472Z,1023.81
2018-02-26T03:09:56.465Z,1023.91
2018-02-26T03:10:56.471Z,1023.88
2018-02-26T03:11:56.467Z,1023.87
2018-02-26T03:12:56.466Z,1023.96
2018-02-26T03:13:56.473Z,1023.90
2018-02-26T03:14:56.474Z,1023.89
2018-02-26T03:15:56.527Z,1023.89
2018-02-26T03:16:56.466Z,1023.89
2018-02-26T03:17:56.544Z,1023.86
2018-02-26T03:18:56.478Z,1023.86
2018-02-26T03:19:56.467Z,1023.86
2018-02-26T03:20:56.472Z,1023.78
2018-02-26T03:21:56.569Z,1023.80
2018-02-26T03:22:56.459Z,1023.78
2018-02-26T03:23:56.465Z,1023.81
2018-02-26T03:24:56.461Z,1023.76
2018-02-26T03:25:56.465Z,1023.74
2018-02-26T03:26:56.466Z,1023.78
2018-02-26T03:27:56.473Z,1023.80
2018-02-26T03:28:56.461Z,1023.83
2018-02-26T03:29:56.466Z,1023.86
2018-02-26T03:30:56.463Z,1023.87
2018-02-26T03:31:56.467Z,1023.82
2018-02-26T03:32:56.477Z,1023.79
2018-02-26T03:33:56.463Z,1023.77
2018-02-26T03:34:56.563Z,1023.75
2018-02-26T03:35:56.474Z,1023.82
2018-02-26T03:36:56.454Z,1023.79
2018-02-26T03:37:56.466Z,1023.93
2018-02-26T03:38:56.456Z,1023.82
2018-02-26T03:39:56.461Z,1023.83
2018-02-26T03:40:56.469Z,1023.87
2018-02-26T03:41:57.546Z,1023.87
2018-02-26T03:42:56.451Z,1023.88
2018-02-26T03:43:56.517Z,1023.92
2018-02-26T03:44:56.453Z,1023.86
2018-02-26T03:45:56.457Z,1023.88
2018-02-26T03:46:56.460Z,1023.90
2018-02-26T03:47:56.540Z,1023.89
2018-02-26T03:48:56.458Z,1023.87
2018-02-26T03:49:56.552Z,1023.89
2018-02-26T03:50:56.455Z,1023.84
2018-02-26T03:51:56.566Z,1023.83
2018-02-26T03:52:56.458Z,1023.86
2018-02-26T03:53:56.588Z,1023.86
2018-02-26T03:54:56.454Z,1023.89
2018-02-26T03:55:56.588Z,1023.94
2018-02-26T03:56:56.459Z,1023.94
2018-02-26T03:57:56.505Z,1023.92
2018-02-26T03:58:56.448Z,1023.92
2018-02-26T03:59:56.449Z,1023.92
2018-02-26T04:00:56.449Z,1023.89
2018-02-26T04:01:56.634Z,1023.93
2018-02-26T04:02:56.449Z,1023.89
2018-02-26T04:03:56.549Z,1023.96
2018-02-26T04:04:56.459Z,1023.97
2018-02-26T04:05:56.567Z,1024.02
2018-02-26T04:06:56.443Z,1024.02
2018-02-26T04:07:56.578Z,1023.93
2018-02-26T04:08:56.446Z,1023.97
2018-02-26T04:09:57.470Z,1023.99
2018-02-26T04:10:56.453Z,1023.98
2018-02-26T04:11:56.502Z,1024.01
2018-02-26T04:12:56.440Z,1023.98
2018-02-26T04:13:56.443Z,1024.04
2018-02-26T04:14:56.527Z,1024.01
2018-02-26T04:15:56.442Z,1023.99
2018-02-26T04:16:56.541Z,1024.03
2018-02-26T04:17:56.450Z,1024.04
2018-02-26T04:18:56.555Z,1024.11
2018-02-26T04:19:56.442Z,1024.07
2018-02-26T04:20:56.570Z,1024.10
2018-02-26T04:21:56.435Z,1024.14
2018-02-26T04:22:56.539Z,1024.11
2018-02-26T04:23:56.437Z,1024.13
2018-02-26T04:24:56.558Z,1024.12
2018-02-26T04:25:56.438Z,1024.08
2018-02-26T04:26:57.495Z,1024.04
2018-02-26T04:27:56.437Z,1024.11
2018-02-26T04:28:56.484Z,1024.07
2018-02-26T04:29:56.431Z,1024.10
2018-02-26T04:30:56.495Z,1024.06
2018-02-26T04:31:56.442Z,1024.04
2018-02-26T04:32:56.511Z,1024.05
2018-02-26T04:33:56.429Z,1024.04
2018-02-26T04:34:56.529Z,1024.11
2018-02-26T04:35:56.437Z,1024.05
2018-02-26T04:36:56.536Z,1024.08
2018-02-26T04:37:56.431Z,1024.12
2018-02-26T04:38:56.551Z,1024.14
2018-02-26T04:39:56.429Z,1024.12
2018-02-26T04:40:56.462Z,1024.12
2018-02-26T04:41:56.489Z,1024.14
2018-02-26T04:42:56.475Z,1024.12
2018-02-26T04:43:56.425Z,1024.17
2018-02-26T04:44:56.488Z,1024.15
2018-02-26T04:45:56.424Z,1024.17
2018-02-26T04:46:56.500Z,1024.21
2018-02-26T04:47:56.417Z,1024.21
2018-02-26T04:48:56.532Z,1024.19
2018-02-26T04:49:56.426Z,1024.28
2018-02-26T04:50:56.529Z,1024.13
2018-02-26T04:51:56.430Z,1024.15
2018-02-26T04:52:57.466Z,1024.17
2018-02-26T04:53:56.420Z,1024.20
2018-02-26T04:54:58.503Z,1024.19
2018-02-26T04:55:56.417Z,1024.22
2018-02-26T04:56:56.570Z,1024.16
2018-02-26T04:57:56.417Z,1024.17
2018-02-26T04:58:56.481Z,1024.13
2018-02-26T04:59:56.409Z,1024.17
2018-02-26T05:00:56.500Z,1024.18
2018-02-26T05:01:56.415Z,1024.15
2018-02-26T05:02:56.510Z,1024.13
2018-02-26T05:03:56.413Z,1024.11
2018-02-26T05:04:57.550Z,1024.17
2018-02-26T05:05:56.410Z,1024.17
2018-02-26T05:06:58.484Z,1024.10
2018-02-26T05:07:56.412Z,1024.17
2018-02-26T05:08:57.475Z,1024.16
2018-02-26T05:09:56.404Z,1024.16
2018-02-26T05:10:56.510Z,1024.19
2018-02-26T05:11:56.404Z,1024.15
2018-02-26T05:12:57.535Z,1024.25
2018-02-26T05:13:56.405Z,1024.20
2018-02-26T05:14:57.514Z,1024.22
2018-02-26T05:15:56.423Z,1024.25
2018-02-26T05:16:56.516Z,1024.24
2018-02-26T05:17:56.402Z,1024.28
2018-02-26T05:18:56.538Z,1024.26
2018-02-26T05:19:56.405Z,1024.23
2018-02-26T05:20:56.532Z,1024.28
2018-02-26T05:21:56.400Z,1024.23
2018-02-26T05:22:56.405Z,1024.22
2018-02-26T05:23:56.479Z,1024.27
2018-02-26T05:24:56.458Z,1024.26
2018-02-26T05:25:56.396Z,1024.29
2018-02-26T05:26:56.395Z,1024.25
2018-02-26T05:27:56.480Z,1024.25
2018-02-26T05:28:56.393Z,1024.29
2018-02-26T05:29:56.493Z,1024.25
2018-02-26T05:30:56.399Z,1024.24
2018-02-26T05:31:56.510Z,1024.30
2018-02-26T05:32:56.386Z,1024.26
2018-02-26T05:33:56.525Z,1024.23
2018-02-26T05:34:56.388Z,1024.17
2018-02-26T05:35:56.540Z,1024.15
2018-02-26T05:36:56.388Z,1024.18
2018-02-26T05:37:56.550Z,1024.12
2018-02-26T05:38:56.380Z,1024.17
2018-02-26T05:39:56.455Z,1024.10
2018-02-26T05:40:56.394Z,1024.15
2018-02-26T05:41:57.453Z,1024.11
2018-02-26T05:42:56.386Z,1024.11
2018-02-26T05:43:56.493Z,1024.16
2018-02-26T05:44:56.393Z,1024.08
2018-02-26T05:45:56.511Z,1024.14
2018-02-26T05:46:56.376Z,1024.16
2018-02-26T05:47:57.534Z,1024.14
2018-02-26T05:48:56.378Z,1024.11
2018-02-26T05:49:56.522Z,1024.16
2018-02-26T05:50:56.377Z,1024.17
2018-02-26T05:51:56.383Z,1024.16
2018-02-26T05:52:57.484Z,1024.24
2018-02-26T05:53:56.380Z,1024.16
2018-02-26T05:54:56.454Z,1024.22
2018-02-26T05:55:56.373Z,1024.20
2018-02-26T05:56:58.524Z,1024.23
2018-02-26T05:57:56.371Z,1024.20
2018-02-26T05:58:56.498Z,1024.17
2018-02-26T05:59:56.393Z,1024.15
2018-02-26T06:00:56.535Z,1024.21
2018-02-26T06:01:56.369Z,1024.17
2018-02-26T06:02:57.548Z,1024.13
2018-02-26T06:03:56.370Z,1024.11
2018-02-26T06:04:56.520Z,1024.18
2018-02-26T06:05:56.376Z,1024.15
2018-02-26T06:06:57.461Z,1024.17
2018-02-26T06:07:56.364Z,1024.11
2018-02-26T06:08:56.459Z,1024.12
2018-02-26T06:09:56.355Z,1024.10
2018-02-26T06:10:56.470Z,1024.07
2018-02-26T06:11:56.367Z,1024.08
2018-02-26T06:12:58.480Z,1024.09
2018-02-26T06:13:56.373Z,1024.07
2018-02-26T06:14:56.450Z,1024.09
2018-02-26T06:15:56.362Z,1024.09
2018-02-26T06:16:56.355Z,1024.06
2018-02-26T06:17:56.454Z,1024.08
2018-02-26T06:18:56.352Z,1024.09
2018-02-26T06:19:58.433Z,1024.07
2018-02-26T06:20:56.351Z,1024.15
2018-02-26T06:21:58.446Z,1024.12
2018-02-26T06:22:56.348Z,1024.14
2018-02-26T06:23:56.403Z,1024.11
2018-02-26T06:24:56.352Z,1024.13
2018-02-26T06:25:56.418Z,1024.12
2018-02-26T06:26:56.367Z,1024.11
2018-02-26T06:27:56.442Z,1024.12
2018-02-26T06:28:56.347Z,1024.16
2018-02-26T06:29:56.451Z,1024.15
2018-02-26T06:30:56.358Z,1024.15
2018-02-26T06:31:56.477Z,1024.19
2018-02-26T06:32:56.343Z,1024.14
2018-02-26T06:33:56.474Z,1024.18
2018-02-26T06:34:56.341Z,1024.13
2018-02-26T06:35:56.386Z,1024.16
2018-02-26T06:36:56.338Z,1024.14
2018-02-26T06:37:56.401Z,1024.15
2018-02-26T06:38:56.340Z,1024.13
2018-02-26T06:39:56.410Z,1024.13
2018-02-26T06:40:56.339Z,1024.12
2018-02-26T06:41:56.424Z,1024.10
2018-02-26T06:42:56.332Z,1024.12
2018-02-26T06:43:56.432Z,1024.21
2018-02-26T06:44:56.364Z,1024.12
2018-02-26T06:45:57.448Z,1024.17
2018-02-26T06:46:56.360Z,1024.15
2018-02-26T06:47:56.473Z,1024.21
2018-02-26T06:48:56.344Z,1024.19
2018-02-26T06:49:56.372Z,1024.18
2018-02-26T06:50:56.336Z,1024.18
2018-02-26T06:51:57.380Z,1024.26
2018-02-26T06:52:56.323Z,1024.25
2018-02-26T06:53:56.328Z,1024.22
2018-02-26T06:54:56.457Z,1024.37
2018-02-26T06:55:56.326Z,1024.28
2018-02-26T06:56:56.434Z,1024.26
2018-02-26T06:57:56.375Z,1024.27
2018-02-26T06:58:56.497Z,1024.27
2018-02-26T06:59:56.324Z,1024.28
2018-02-26T07:00:56.454Z,1024.30
2018-02-26T07:01:56.319Z,1024.28
2018-02-26T07:02:56.326Z,1024.30
2018-02-26T07:03:56.368Z,1024.30
2018-02-26T07:04:56.374Z,1024.24
2018-02-26T07:05:56.383Z,1024.27
2018-02-26T07:06:56.306Z,1024.31
2018-02-26T07:07:56.397Z,1024.33
2018-02-26T07:08:56.308Z,1024.32
2018-02-26T07:09:56.410Z,1024.36
2018-02-26T07:10:56.303Z,1024.38
2018-02-26T07:11:56.421Z,1024.38
2018-02-26T07:12:56.314Z,1024.37
2018-02-26T07:13:56.439Z,1024.34
2018-02-26T07:14:56.304Z,1024.34
2018-02-26T07:15:56.450Z,1024.39
2018-02-26T07:16:56.349Z,1024.37
2018-02-26T07:17:56.362Z,1024.43
2018-02-26T07:18:56.298Z,1024.41
2018-02-26T07:19:56.302Z,1024.41
2018-02-26T07:20:56.298Z,1024.44
2018-02-26T07:21:56.389Z,1024.44
2018-02-26T07:22:56.294Z,1024.48
2018-02-26T07:23:56.375Z,1024.43
2018-02-26T07:24:56.293Z,1024.50
2018-02-26T07:25:57.422Z,1024.48
2018-02-26T07:26:56.299Z,1024.47
2018-02-26T07:27:56.309Z,1024.50
2018-02-26T07:28:56.303Z,1024.51
2018-02-26T07:29:56.304Z,1024.52
2018-02-26T07:30:56.352Z,1024.50
2018-02-26T07:31:56.336Z,1024.63
2018-02-26T07:32:56.328Z,1024.60
2018-02-26T07:33:56.291Z,1024.51
2018-02-26T07:34:57.366Z,1024.52
2018-02-26T07:35:56.300Z,1024.50
2018-02-26T07:36:56.352Z,1024.55
2018-02-26T07:37:56.281Z,1024.55
2018-02-26T07:38:56.373Z,1024.52
2018-02-26T07:39:56.284Z,1024.51
2018-02-26T07:40:56.378Z,1024.52
2018-02-26T07:41:56.309Z,1024.56
2018-02-26T07:42:56.391Z,1024.52
2018-02-26T07:43:56.281Z,1024.52
2018-02-26T07:44:56.300Z,1024.53
2018-02-26T07:45:56.303Z,1024.61
2018-02-26T07:46:56.318Z,1024.52
2018-02-26T07:47:56.275Z,1024.53
2018-02-26T07:48:56.331Z,1024.61
2018-02-26T07:49:56.288Z,1024.54
2018-02-26T07:50:56.345Z,1024.50
2018-02-26T07:51:56.274Z,1024.46
2018-02-26T07:52:56.265Z,1024.46
2018-02-26T07:53:56.264Z,1024.46
2018-02-26T07:54:57.391Z,1024.44
2018-02-26T07:55:56.262Z,1024.42
2018-02-26T07:56:56.286Z,1024.44
2018-02-26T07:57:56.260Z,1024.47
2018-02-26T07:58:56.299Z,1024.36
2018-02-26T07:59:56.254Z,1024.36
2018-02-26T08:00:57.346Z,1024.39
2018-02-26T08:01:56.251Z,1024.40
2018-02-26T08:02:56.326Z,1024.42
2018-02-26T08:03:56.250Z,1024.39
2018-02-26T08:04:56.344Z,1024.42
2018-02-26T08:05:56.249Z,1024.42
2018-02-26T08:06:56.348Z,1024.39
2018-02-26T08:07:56.249Z,1024.42
2018-02-26T08:08:56.257Z,1024.39
2018-02-26T08:10:06.999Z,1024.42
2018-02-26T08:12:36.948Z,1024.36
2018-02-26T08:13:36.921Z,1024.38
2018-02-26T08:14:36.996Z,1024.52
2018-02-26T08:15:36.904Z,1024.40
2018-02-26T08:16:36.919Z,1024.39
2018-02-26T08:17:38.001Z,1024.48
2018-02-26T08:18:36.909Z,1024.44
2018-02-26T08:19:38.018Z,1024.50
2018-02-26T08:20:36.896Z,1024.46
2018-02-26T08:21:37.005Z,1024.42
2018-02-26T08:22:36.918Z,1024.47
2018-02-26T08:23:41.421Z,1024.57
2018-02-26T08:24:36.896Z,1024.45
2018-02-26T08:25:36.935Z,1024.39
2018-02-26T08:26:36.947Z,1024.39
2018-02-26T08:27:36.891Z,1024.34
2018-02-26T08:28:37.973Z,1024.32
2018-02-26T08:29:36.884Z,1024.37
2018-02-26T08:30:36.903Z,1024.40
2018-02-26T08:31:36.993Z,1024.39
2018-02-26T08:32:36.892Z,1024.37
2018-02-26T08:33:36.975Z,1024.31
2018-02-26T08:34:49.862Z,1024.35
2018-02-26T08:35:36.888Z,1024.35
2018-02-26T08:36:36.997Z,1024.41
2018-02-26T08:37:36.890Z,1024.33
2018-02-26T08:38:36.911Z,1024.35
2018-02-26T08:39:36.886Z,1024.32
2018-02-26T08:40:36.925Z,1024.34
2018-02-26T08:41:36.875Z,1024.38
2018-02-26T08:42:36.955Z,1024.38
2018-02-26T08:43:36.873Z,1024.38
2018-02-26T08:44:37.080Z,1024.38
2018-02-26T08:45:36.886Z,1024.40
2018-02-26T08:46:36.961Z,1024.41
2018-02-26T08:47:36.922Z,1024.38
2018-02-26T08:48:37.971Z,1024.40
2018-02-26T08:49:36.877Z,1024.45
2018-02-26T08:50:36.974Z,1024.40
2018-02-26T08:51:36.878Z,1024.39
2018-02-26T08:52:36.872Z,1024.49
2018-02-26T08:53:36.870Z,1024.46
2018-02-26T08:54:36.932Z,1024.58
2018-02-26T08:55:36.896Z,1024.45
2018-02-26T08:56:36.880Z,1024.42
2018-02-26T08:57:36.961Z,1024.43
2018-02-26T08:58:36.867Z,1024.50
2018-02-26T08:59:36.982Z,1024.43
2018-02-26T09:00:36.867Z,1024.42
2018-02-26T09:01:37.968Z,1024.39
2018-02-26T09:02:36.867Z,1024.34
2018-02-26T09:03:36.955Z,1024.34
2018-02-26T09:04:36.878Z,1024.37
2018-02-26T09:05:36.887Z,1024.38
2018-02-26T09:06:36.879Z,1024.46
2018-02-26T09:07:36.862Z,1024.42
2018-02-26T09:08:36.864Z,1024.33
2018-02-26T09:09:36.855Z,1024.31
2018-02-26T09:10:36.862Z,1024.31
2018-02-26T09:11:36.864Z,1024.35
2018-02-26T09:12:36.855Z,1024.27
2018-02-26T09:13:36.855Z,1024.28
2018-02-26T09:14:36.863Z,1024.26
2018-02-26T09:15:36.854Z,1024.28
2018-02-26T09:16:36.873Z,1024.25
2018-02-26T09:17:36.986Z,1024.29
2018-02-26T09:18:36.863Z,1024.29
2018-02-26T09:19:36.959Z,1024.26
2018-02-26T09:20:36.867Z,1024.24
2018-02-26T09:21:36.862Z,1024.25
2018-02-26T09:22:36.857Z,1024.27
2018-02-26T09:23:37.898Z,1024.38
2018-02-26T09:24:36.870Z,1024.23
2018-02-26T09:25:36.868Z,1024.26
2018-02-26T09:26:36.900Z,1024.24
2018-02-26T09:27:36.847Z,1024.32
2018-02-26T09:28:36.851Z,1024.28
2018-02-26T09:29:36.848Z,1024.30
2018-02-26T09:30:36.852Z,1024.21
2018-02-26T09:31:36.943Z,1024.19
2018-02-26T09:32:36.842Z,1024.21
2018-02-26T09:33:36.842Z,1024.19
2018-02-26T09:34:36.894Z,1024.16
2018-02-26T09:35:36.849Z,1024.15
2018-02-26T09:36:36.843Z,1024.14
2018-02-26T09:37:36.847Z,1024.18
2018-02-26T09:38:36.837Z,1024.15
2018-02-26T09:39:36.835Z,1024.22
2018-02-26T09:40:37.928Z,1024.09
2018-02-26T09:41:36.841Z,1024.07
2018-02-26T09:42:36.919Z,1024.06
2018-02-26T09:43:36.843Z,1024.14
2018-02-26T09:44:36.956Z,1024.16
2018-02-26T09:45:36.847Z,1024.12
2018-02-26T09:46:37.859Z,1024.14
2018-02-26T09:47:36.835Z,1024.11
2018-02-26T09:48:36.868Z,1024.04
2018-02-26T09:49:36.863Z,1024.06
2018-02-26T09:50:36.837Z,1024.10
2018-02-26T09:51:36.831Z,1024.16
2018-02-26T09:52:36.837Z,1024.09
2018-02-26T09:53:36.889Z,1024.08
2018-02-26T09:54:36.832Z,1024.16
2018-02-26T09:55:36.895Z,1024.09
2018-02-26T09:56:36.837Z,1024.15
2018-02-26T09:57:36.830Z,1024.10
2018-02-26T09:58:36.915Z,1024.10
2018-02-26T09:59:36.836Z,1024.14
2018-02-26T10:00:36.962Z,1024.12
2018-02-26T10:01:36.831Z,1024.12
2018-02-26T10:02:36.829Z,1024.16
2018-02-26T10:03:36.968Z,1024.09
2018-02-26T10:04:36.830Z,1024.21
2018-02-26T10:05:36.877Z,1024.05
2018-02-26T10:06:36.827Z,1024.00
2018-02-26T10:07:36.818Z,1024.06
2018-02-26T10:08:36.824Z,1023.99
2018-02-26T10:09:36.828Z,1024.04
2018-02-26T10:10:36.835Z,1023.96
2018-02-26T10:11:36.829Z,1024.06
2018-02-26T10:12:36.842Z,1024.03
2018-02-26T10:13:36.845Z,1023.96
2018-02-26T10:14:36.952Z,1023.99
2018-02-26T10:15:36.824Z,1024.01
2018-02-26T10:16:36.819Z,1023.91
2018-02-26T10:17:36.827Z,1023.88
2018-02-26T10:18:36.855Z,1023.86
2018-02-26T10:19:36.832Z,1023.90
2018-02-26T10:20:36.841Z,1023.90
2018-02-26T10:21:36.824Z,1023.86
2018-02-26T10:22:36.816Z,1023.86
2018-02-26T10:23:36.894Z,1023.90
2018-02-26T10:24:36.812Z,1023.94
2018-02-26T10:25:36.906Z,1023.91
2018-02-26T10:26:36.813Z,1023.92
2018-02-26T10:27:36.829Z,1023.82
2018-02-26T10:28:36.815Z,1023.78
2018-02-26T10:29:36.811Z,1023.70
2018-02-26T10:30:36.834Z,1023.79
2018-02-26T10:31:36.823Z,1023.78
2018-02-26T10:32:36.859Z,1023.81
2018-02-26T10:33:36.804Z,1023.77
2018-02-26T10:34:36.813Z,1023.83
2018-02-26T10:35:36.816Z,1023.79
2018-02-26T10:36:36.798Z,1023.79
2018-02-26T10:37:36.804Z,1023.73
2018-02-26T10:38:36.808Z,1023.81
2018-02-26T10:39:36.806Z,1023.95
2018-02-26T10:40:36.819Z,1023.80
2018-02-26T10:41:36.813Z,1023.77
2018-02-26T10:42:36.915Z,1023.66
2018-02-26T10:43:36.797Z,1023.77
2018-02-26T10:44:36.802Z,1023.75
2018-02-26T10:45:36.814Z,1023.82
2018-02-26T10:46:36.793Z,1023.74
2018-02-26T10:47:36.796Z,1023.73
2018-02-26T10:48:36.794Z,1023.75
2018-02-26T10:49:36.799Z,1023.78
2018-02-26T10:50:36.851Z,1023.68
2018-02-26T10:51:36.786Z,1023.84
2018-02-26T10:52:36.785Z,1023.68
2018-02-26T10:53:36.875Z,1023.75
2018-02-26T10:54:36.788Z,1023.73
2018-02-26T10:55:36.810Z,1023.75
2018-02-26T10:56:36.796Z,1023.74
2018-02-26T10:57:36.818Z,1023.79
2018-02-26T10:58:36.816Z,1023.79
2018-02-26T10:59:36.785Z,1023.68
2018-02-26T11:00:36.785Z,1023.71
2018-02-26T11:01:36.828Z,1023.62
2018-02-26T11:02:36.780Z,1023.66
2018-02-26T11:03:36.782Z,1023.70
2018-02-26T11:04:36.795Z,1023.62
2018-02-26T11:05:36.801Z,1023.58
2018-02-26T11:06:36.783Z,1023.60
2018-02-26T11:07:36.867Z,1023.70
2018-02-26T11:08:36.780Z,1023.64
2018-02-26T11:09:36.796Z,1023.61
2018-02-26T11:10:36.807Z,1023.64
2018-02-26T11:11:36.804Z,1023.66
2018-02-26T11:12:36.776Z,1023.63
2018-02-26T11:13:37.830Z,1023.65
2018-02-26T11:14:36.774Z,1023.60
2018-02-26T11:15:36.773Z,1023.61
2018-02-26T11:16:36.778Z,1023.62
2018-02-26T11:17:36.850Z,1023.66
2018-02-26T11:18:36.796Z,1023.66
2018-02-26T11:19:36.809Z,1023.63
2018-02-26T11:20:36.768Z,1023.68
2018-02-26T11:21:36.819Z,1023.64
2018-02-26T11:22:36.790Z,1023.57
2018-02-26T11:23:36.777Z,1023.61
2018-02-26T11:24:36.777Z,1023.54
2018-02-26T11:25:36.786Z,1023.65
2018-02-26T11:26:36.769Z,1023.66
2018-02-26T11:27:36.765Z,1023.63
2018-02-26T11:28:36.774Z,1023.58
2018-02-26T11:29:36.764Z,1023.59
2018-02-26T11:30:36.774Z,1023.57
2018-02-26T11:31:36.766Z,1023.57
2018-02-26T11:32:36.764Z,1023.71
2018-02-26T11:33:36.757Z,1023.51
2018-02-26T11:34:36.764Z,1023.55
2018-02-26T11:35:36.759Z,1023.42
2018-02-26T11:36:36.762Z,1023.46
2018-02-26T11:37:36.756Z,1023.42
2018-02-26T11:38:36.820Z,1023.40
2018-02-26T11:39:36.771Z,1023.44
2018-02-26T11:40:36.780Z,1023.38
2018-02-26T11:41:36.758Z,1023.35
2018-02-26T11:42:36.763Z,1023.37
2018-02-26T11:43:36.752Z,1023.41
2018-02-26T11:44:36.768Z,1023.42
2018-02-26T11:45:36.808Z,1023.39
2018-02-26T11:46:36.752Z,1023.38
2018-02-26T11:47:36.837Z,1023.33
2018-02-26T11:48:36.760Z,1023.31
2018-02-26T11:49:36.748Z,1023.23
2018-02-26T11:50:36.748Z,1023.21
2018-02-26T11:51:36.752Z,1023.21
2018-02-26T11:52:36.752Z,1023.18
2018-02-26T11:53:36.782Z,1023.20
2018-02-26T11:54:36.765Z,1023.23
2018-02-26T11:55:36.764Z,1023.30
2018-02-26T11:56:36.754Z,1023.17
2018-02-26T11:57:37.832Z,1023.15
2018-02-26T11:58:36.747Z,1023.16
2018-02-26T11:59:37.843Z,1023.30
2018-02-26T12:00:36.743Z,1023.23
2018-02-26T12:01:36.746Z,1023.18
2018-02-26T12:02:36.823Z,1023.22
2018-02-26T12:03:36.746Z,1023.16
2018-02-26T12:04:36.761Z,1023.21
2018-02-26T12:05:36.749Z,1023.18
2018-02-26T12:06:36.748Z,1023.04
2018-02-26T12:07:36.778Z,1023.02